sensor_id;sensor_type;location;lat;lon;timestamp;P1;durP1;ratioP1;P2;durP2;ratioP2
20417;SDS011;10368;51.436;6.774;2023-04-06T00:02:05;11.03;;;7.70;;
20417;SDS011;10368;51.436;6.774;2023-04-06T00:04:32;16.20;;;8.97;;
20417;SDS011;10368;51.436;6.774;2023-04-06T00:06:59;10.60;;;8.37;;
20417;SDS011;10368;51.436;6.774;2023-04-06T00:09:27;14.60;;;8.83;;
20417;SDS011;10368;51.436;6.774;2023-04-06T00:11:54;11.73;;;8.33;;
20417;SDS011;10368;51.436;6.774;2023-04-06T00:14:22;14.07;;;8.93;;
20417;SDS011;10368;51.436;6.774;2023-04-06T00:16:49;13.67;;;9.73;;
20417;SDS011;10368;51.436;6.774;2023-04-06T00:19:17;10.27;;;8.80;;
20417;SDS011;10368;51.436;6.774;2023-04-06T00:21:44;13.80;;;9.17;;
20417;SDS011;10368;51.436;6.774;2023-04-06T00:24:11;13.57;;;9.03;;
20417;SDS011;10368;51.436;6.774;2023-04-06T00:26:39;15.20;;;9.23;;
20417;SDS011;10368;51.436;6.774;2023-04-06T00:29:06;12.57;;;9.03;;
20417;SDS011;10368;51.436;6.774;2023-04-06T00:31:34;13.27;;;9.30;;
20417;SDS011;10368;51.436;6.774;2023-04-06T00:34:01;11.57;;;8.87;;
20417;SDS011;10368;51.436;6.774;2023-04-06T00:36:28;18.80;;;10.13;;
20417;SDS011;10368;51.436;6.774;2023-04-06T00:38:56;14.30;;;9.73;;
20417;SDS011;10368;51.436;6.774;2023-04-06T00:41:23;17.63;;;9.50;;
20417;SDS011;10368;51.436;6.774;2023-04-06T00:43:51;19.23;;;9.00;;
20417;SDS011;10368;51.436;6.774;2023-04-06T00:46:18;14.90;;;9.47;;
20417;SDS011;10368;51.436;6.774;2023-04-06T00:48:45;13.80;;;9.50;;
20417;SDS011;10368;51.436;6.774;2023-04-06T00:51:13;12.20;;;8.73;;
20417;SDS011;10368;51.436;6.774;2023-04-06T00:53:40;12.53;;;8.87;;
20417;SDS011;10368;51.436;6.774;2023-04-06T00:56:08;14.23;;;8.40;;
20417;SDS011;10368;51.436;6.774;2023-04-06T00:58:36;11.10;;;7.67;;
20417;SDS011;10368;51.436;6.774;2023-04-06T01:01:04;12.63;;;8.23;;
20417;SDS011;10368;51.436;6.774;2023-04-06T01:03:32;9.43;;;7.50;;
20417;SDS011;10368;51.436;6.774;2023-04-06T01:05:59;9.60;;;7.30;;
20417;SDS011;10368;51.436;6.774;2023-04-06T01:08:27;9.93;;;7.13;;
20417;SDS011;10368;51.436;6.774;2023-04-06T01:10:55;12.80;;;7.97;;
20417;SDS011;10368;51.436;6.774;2023-04-06T01:13:22;11.73;;;7.73;;
20417;SDS011;10368;51.436;6.774;2023-04-06T01:15:50;10.93;;;7.40;;
20417;SDS011;10368;51.436;6.774;2023-04-06T01:18:17;10.93;;;8.73;;
20417;SDS011;10368;51.436;6.774;2023-04-06T01:20:44;9.27;;;7.80;;
20417;SDS011;10368;51.436;6.774;2023-04-06T01:23:11;11.83;;;8.50;;
20417;SDS011;10368;51.436;6.774;2023-04-06T01:25:39;11.33;;;7.97;;
20417;SDS011;10368;51.436;6.774;2023-04-06T01:28:06;10.33;;;8.00;;
20417;SDS011;10368;51.436;6.774;2023-04-06T01:30:36;13.40;;;8.63;;
20417;SDS011;10368;51.436;6.774;2023-04-06T01:33:03;10.30;;;7.83;;
20417;SDS011;10368;51.436;6.774;2023-04-06T01:35:31;12.20;;;8.60;;
20417;SDS011;10368;51.436;6.774;2023-04-06T01:37:58;13.03;;;8.73;;
20417;SDS011;10368;51.436;6.774;2023-04-06T01:40:26;12.53;;;9.93;;
20417;SDS011;10368;51.436;6.774;2023-04-06T01:42:53;10.53;;;8.30;;
20417;SDS011;10368;51.436;6.774;2023-04-06T01:45:20;12.70;;;9.80;;
20417;SDS011;10368;51.436;6.774;2023-04-06T01:47:48;10.23;;;8.73;;
20417;SDS011;10368;51.436;6.774;2023-04-06T01:50:15;11.43;;;8.50;;
20417;SDS011;10368;51.436;6.774;2023-04-06T01:52:42;13.60;;;9.03;;
20417;SDS011;10368;51.436;6.774;2023-04-06T01:55:10;15.70;;;8.77;;
20417;SDS011;10368;51.436;6.774;2023-04-06T01:57:37;17.00;;;8.87;;
20417;SDS011;10368;51.436;6.774;2023-04-06T02:00:04;11.97;;;8.57;;
20417;SDS011;10368;51.436;6.774;2023-04-06T02:02:32;15.37;;;8.63;;
20417;SDS011;10368;51.436;6.774;2023-04-06T02:04:59;10.33;;;7.83;;
20417;SDS011;10368;51.436;6.774;2023-04-06T02:07:26;12.10;;;8.20;;
20417;SDS011;10368;51.436;6.774;2023-04-06T02:09:54;15.00;;;9.17;;
20417;SDS011;10368;51.436;6.774;2023-04-06T02:12:22;13.73;;;8.43;;
20417;SDS011;10368;51.436;6.774;2023-04-06T02:14:50;12.17;;;9.23;;
20417;SDS011;10368;51.436;6.774;2023-04-06T02:17:17;11.13;;;9.13;;
20417;SDS011;10368;51.436;6.774;2023-04-06T02:19:44;12.00;;;8.93;;
20417;SDS011;10368;51.436;6.774;2023-04-06T02:22:11;12.30;;;10.07;;
20417;SDS011;10368;51.436;6.774;2023-04-06T02:24:38;9.90;;;8.63;;
20417;SDS011;10368;51.436;6.774;2023-04-06T02:27:05;13.90;;;9.67;;
20417;SDS011;10368;51.436;6.774;2023-04-06T02:29:32;11.23;;;9.77;;
20417;SDS011;10368;51.436;6.774;2023-04-06T02:31:59;13.57;;;9.33;;
20417;SDS011;10368;51.436;6.774;2023-04-06T02:34:26;13.43;;;9.47;;
20417;SDS011;10368;51.436;6.774;2023-04-06T02:36:53;15.43;;;10.17;;
20417;SDS011;10368;51.436;6.774;2023-04-06T02:39:20;14.53;;;10.33;;
20417;SDS011;10368;51.436;6.774;2023-04-06T02:41:47;19.77;;;10.07;;
20417;SDS011;10368;51.436;6.774;2023-04-06T02:44:14;16.30;;;10.03;;
20417;SDS011;10368;51.436;6.774;2023-04-06T02:46:41;14.93;;;9.60;;
20417;SDS011;10368;51.436;6.774;2023-04-06T02:49:08;12.63;;;9.73;;
20417;SDS011;10368;51.436;6.774;2023-04-06T02:51:35;12.20;;;9.53;;
20417;SDS011;10368;51.436;6.774;2023-04-06T02:54:02;15.17;;;9.97;;
20417;SDS011;10368;51.436;6.774;2023-04-06T02:56:29;17.80;;;10.73;;
20417;SDS011;10368;51.436;6.774;2023-04-06T02:58:56;13.27;;;9.40;;
20417;SDS011;10368;51.436;6.774;2023-04-06T03:01:23;14.33;;;10.80;;
20417;SDS011;10368;51.436;6.774;2023-04-06T03:03:50;13.73;;;10.53;;
20417;SDS011;10368;51.436;6.774;2023-04-06T03:06:17;13.67;;;10.83;;
20417;SDS011;10368;51.436;6.774;2023-04-06T03:08:44;14.97;;;11.57;;
20417;SDS011;10368;51.436;6.774;2023-04-06T03:11:11;15.67;;;10.37;;
20417;SDS011;10368;51.436;6.774;2023-04-06T03:13:38;15.73;;;10.20;;
20417;SDS011;10368;51.436;6.774;2023-04-06T03:16:05;12.40;;;10.20;;
20417;SDS011;10368;51.436;6.774;2023-04-06T03:18:32;14.93;;;10.80;;
20417;SDS011;10368;51.436;6.774;2023-04-06T03:20:59;13.70;;;10.57;;
20417;SDS011;10368;51.436;6.774;2023-04-06T03:23:27;16.60;;;10.57;;
20417;SDS011;10368;51.436;6.774;2023-04-06T03:25:54;13.93;;;10.47;;
20417;SDS011;10368;51.436;6.774;2023-04-06T03:28:21;16.23;;;10.13;;
20417;SDS011;10368;51.436;6.774;2023-04-06T03:30:48;14.63;;;10.00;;
20417;SDS011;10368;51.436;6.774;2023-04-06T03:33:15;14.60;;;9.83;;
20417;SDS011;10368;51.436;6.774;2023-04-06T03:35:42;13.60;;;10.93;;
20417;SDS011;10368;51.436;6.774;2023-04-06T03:38:09;12.30;;;10.47;;
20417;SDS011;10368;51.436;6.774;2023-04-06T03:40:39;12.97;;;10.23;;
20417;SDS011;10368;51.436;6.774;2023-04-06T03:43:06;14.77;;;10.20;;
20417;SDS011;10368;51.436;6.774;2023-04-06T03:45:33;13.97;;;10.40;;
20417;SDS011;10368;51.436;6.774;2023-04-06T03:48:00;13.50;;;10.63;;
20417;SDS011;10368;51.436;6.774;2023-04-06T03:50:28;14.20;;;10.43;;
20417;SDS011;10368;51.436;6.774;2023-04-06T03:52:55;14.47;;;10.20;;
20417;SDS011;10368;51.436;6.774;2023-04-06T03:55:22;11.90;;;9.90;;
20417;SDS011;10368;51.436;6.774;2023-04-06T03:57:50;14.23;;;10.30;;
20417;SDS011;10368;51.436;6.774;2023-04-06T04:00:17;13.80;;;10.07;;
20417;SDS011;10368;51.436;6.774;2023-04-06T04:02:44;15.43;;;9.33;;
20417;SDS011;10368;51.436;6.774;2023-04-06T04:05:12;13.13;;;9.67;;
20417;SDS011;10368;51.436;6.774;2023-04-06T04:07:39;12.57;;;9.97;;
20417;SDS011;10368;51.436;6.774;2023-04-06T04:10:07;12.63;;;9.23;;
20417;SDS011;10368;51.436;6.774;2023-04-06T04:12:34;13.07;;;9.40;;
20417;SDS011;10368;51.436;6.774;2023-04-06T04:15:01;15.77;;;9.97;;
20417;SDS011;10368;51.436;6.774;2023-04-06T04:17:29;12.57;;;10.57;;
20417;SDS011;10368;51.436;6.774;2023-04-06T04:19:56;13.20;;;10.00;;
20417;SDS011;10368;51.436;6.774;2023-04-06T04:22:23;13.10;;;9.00;;
20417;SDS011;10368;51.436;6.774;2023-04-06T04:24:51;17.57;;;9.90;;
20417;SDS011;10368;51.436;6.774;2023-04-06T04:27:18;12.50;;;10.27;;
20417;SDS011;10368;51.436;6.774;2023-04-06T04:29:46;12.97;;;9.70;;
20417;SDS011;10368;51.436;6.774;2023-04-06T04:32:13;12.90;;;9.37;;
20417;SDS011;10368;51.436;6.774;2023-04-06T04:34:41;11.90;;;9.57;;
20417;SDS011;10368;51.436;6.774;2023-04-06T04:37:09;20.10;;;12.13;;
20417;SDS011;10368;51.436;6.774;2023-04-06T04:39:36;17.93;;;9.53;;
20417;SDS011;10368;51.436;6.774;2023-04-06T04:42:03;11.50;;;9.30;;
20417;SDS011;10368;51.436;6.774;2023-04-06T04:44:30;13.07;;;9.93;;
20417;SDS011;10368;51.436;6.774;2023-04-06T04:46:58;9.53;;;8.53;;
20417;SDS011;10368;51.436;6.774;2023-04-06T04:49:25;14.17;;;9.07;;
20417;SDS011;10368;51.436;6.774;2023-04-06T04:51:52;12.33;;;9.70;;
20417;SDS011;10368;51.436;6.774;2023-04-06T04:54:20;13.53;;;9.30;;
20417;SDS011;10368;51.436;6.774;2023-04-06T04:56:47;10.33;;;8.50;;
20417;SDS011;10368;51.436;6.774;2023-04-06T04:59:14;12.73;;;9.33;;
20417;SDS011;10368;51.436;6.774;2023-04-06T05:01:42;11.50;;;9.40;;
20417;SDS011;10368;51.436;6.774;2023-04-06T05:04:20;12.20;;;9.47;;
20417;SDS011;10368;51.436;6.774;2023-04-06T05:06:47;11.10;;;8.73;;
20417;SDS011;10368;51.436;6.774;2023-04-06T05:09:14;10.47;;;8.23;;
20417;SDS011;10368;51.436;6.774;2023-04-06T05:11:42;12.87;;;8.40;;
20417;SDS011;10368;51.436;6.774;2023-04-06T05:14:09;11.40;;;8.30;;
20417;SDS011;10368;51.436;6.774;2023-04-06T05:16:37;10.60;;;8.83;;
20417;SDS011;10368;51.436;6.774;2023-04-06T05:19:04;11.20;;;7.80;;
20417;SDS011;10368;51.436;6.774;2023-04-06T05:21:32;14.77;;;9.60;;
20417;SDS011;10368;51.436;6.774;2023-04-06T05:23:59;11.17;;;8.63;;
20417;SDS011;10368;51.436;6.774;2023-04-06T05:26:28;14.27;;;9.17;;
20417;SDS011;10368;51.436;6.774;2023-04-06T05:28:55;12.73;;;8.77;;
20417;SDS011;10368;51.436;6.774;2023-04-06T05:31:23;12.43;;;8.60;;
20417;SDS011;10368;51.436;6.774;2023-04-06T05:33:50;15.80;;;9.43;;
20417;SDS011;10368;51.436;6.774;2023-04-06T05:36:18;13.47;;;9.83;;
20417;SDS011;10368;51.436;6.774;2023-04-06T05:38:45;13.00;;;9.40;;
20417;SDS011;10368;51.436;6.774;2023-04-06T05:41:15;9.70;;;8.17;;
20417;SDS011;10368;51.436;6.774;2023-04-06T05:43:52;12.20;;;9.40;;
20417;SDS011;10368;51.436;6.774;2023-04-06T05:46:19;12.73;;;7.93;;
20417;SDS011;10368;51.436;6.774;2023-04-06T05:48:47;12.60;;;9.33;;
20417;SDS011;10368;51.436;6.774;2023-04-06T05:51:14;11.33;;;9.60;;
20417;SDS011;10368;51.436;6.774;2023-04-06T05:53:41;10.50;;;9.17;;
20417;SDS011;10368;51.436;6.774;2023-04-06T05:56:08;13.70;;;8.83;;
20417;SDS011;10368;51.436;6.774;2023-04-06T05:58:36;15.53;;;8.83;;
20417;SDS011;10368;51.436;6.774;2023-04-06T06:01:03;14.57;;;8.97;;
20417;SDS011;10368;51.436;6.774;2023-04-06T06:03:31;12.03;;;8.83;;
20417;SDS011;10368;51.436;6.774;2023-04-06T06:06:04;11.67;;;9.43;;
20417;SDS011;10368;51.436;6.774;2023-04-06T06:08:34;12.00;;;8.37;;
20417;SDS011;10368;51.436;6.774;2023-04-06T06:11:01;13.07;;;9.10;;
20417;SDS011;10368;51.436;6.774;2023-04-06T06:13:29;10.90;;;8.80;;
20417;SDS011;10368;51.436;6.774;2023-04-06T06:15:57;18.33;;;8.57;;
20417;SDS011;10368;51.436;6.774;2023-04-06T06:18:24;10.63;;;8.63;;
20417;SDS011;10368;51.436;6.774;2023-04-06T06:20:51;9.73;;;8.10;;
20417;SDS011;10368;51.436;6.774;2023-04-06T06:23:19;13.83;;;8.10;;
20417;SDS011;10368;51.436;6.774;2023-04-06T06:25:46;10.77;;;8.30;;
20417;SDS011;10368;51.436;6.774;2023-04-06T06:28:13;12.97;;;9.10;;
20417;SDS011;10368;51.436;6.774;2023-04-06T06:30:40;10.43;;;8.00;;
20417;SDS011;10368;51.436;6.774;2023-04-06T06:33:08;12.73;;;8.70;;
20417;SDS011;10368;51.436;6.774;2023-04-06T06:35:35;12.67;;;8.67;;
20417;SDS011;10368;51.436;6.774;2023-04-06T06:38:02;11.80;;;9.03;;
20417;SDS011;10368;51.436;6.774;2023-04-06T06:40:29;16.27;;;8.70;;
20417;SDS011;10368;51.436;6.774;2023-04-06T06:42:57;12.30;;;8.13;;
20417;SDS011;10368;51.436;6.774;2023-04-06T06:45:24;12.07;;;8.37;;
20417;SDS011;10368;51.436;6.774;2023-04-06T06:47:51;13.20;;;8.03;;
20417;SDS011;10368;51.436;6.774;2023-04-06T06:50:20;11.27;;;8.53;;
20417;SDS011;10368;51.436;6.774;2023-04-06T06:52:48;11.93;;;8.27;;
20417;SDS011;10368;51.436;6.774;2023-04-06T06:55:15;15.33;;;8.07;;
20417;SDS011;10368;51.436;6.774;2023-04-06T06:57:45;9.87;;;7.37;;
20417;SDS011;10368;51.436;6.774;2023-04-06T07:00:15;9.60;;;7.53;;
20417;SDS011;10368;51.436;6.774;2023-04-06T07:02:42;10.23;;;8.40;;
20417;SDS011;10368;51.436;6.774;2023-04-06T07:05:10;9.67;;;7.80;;
20417;SDS011;10368;51.436;6.774;2023-04-06T07:07:52;7.83;;;7.03;;
20417;SDS011;10368;51.436;6.774;2023-04-06T07:10:19;11.03;;;9.30;;
20417;SDS011;10368;51.436;6.774;2023-04-06T07:12:47;9.63;;;7.83;;
20417;SDS011;10368;51.436;6.774;2023-04-06T07:15:14;12.77;;;9.20;;
20417;SDS011;10368;51.436;6.774;2023-04-06T07:17:41;9.17;;;7.40;;
20417;SDS011;10368;51.436;6.774;2023-04-06T07:20:12;8.90;;;7.23;;
20417;SDS011;10368;51.436;6.774;2023-04-06T07:22:40;13.27;;;8.17;;
20417;SDS011;10368;51.436;6.774;2023-04-06T07:25:07;9.63;;;7.80;;
20417;SDS011;10368;51.436;6.774;2023-04-06T07:27:34;9.73;;;8.13;;
20417;SDS011;10368;51.436;6.774;2023-04-06T07:30:02;11.13;;;8.57;;
20417;SDS011;10368;51.436;6.774;2023-04-06T07:32:29;8.40;;;7.50;;
20417;SDS011;10368;51.436;6.774;2023-04-06T07:34:57;14.53;;;8.37;;
20417;SDS011;10368;51.436;6.774;2023-04-06T07:37:24;10.87;;;7.67;;
20417;SDS011;10368;51.436;6.774;2023-04-06T07:39:52;11.93;;;7.90;;
20417;SDS011;10368;51.436;6.774;2023-04-06T07:42:19;11.20;;;8.17;;
20417;SDS011;10368;51.436;6.774;2023-04-06T07:44:47;9.90;;;8.20;;
20417;SDS011;10368;51.436;6.774;2023-04-06T07:47:15;9.27;;;7.70;;
20417;SDS011;10368;51.436;6.774;2023-04-06T07:49:42;11.67;;;8.70;;
20417;SDS011;10368;51.436;6.774;2023-04-06T07:52:09;11.30;;;8.30;;
20417;SDS011;10368;51.436;6.774;2023-04-06T07:54:37;14.70;;;8.57;;
20417;SDS011;10368;51.436;6.774;2023-04-06T07:57:04;10.20;;;7.93;;
20417;SDS011;10368;51.436;6.774;2023-04-06T07:59:31;10.20;;;8.83;;
20417;SDS011;10368;51.436;6.774;2023-04-06T08:01:59;22.90;;;14.60;;
20417;SDS011;10368;51.436;6.774;2023-04-06T08:04:26;13.17;;;10.00;;
20417;SDS011;10368;51.436;6.774;2023-04-06T08:06:53;10.37;;;8.40;;
20417;SDS011;10368;51.436;6.774;2023-04-06T08:09:21;12.23;;;9.13;;
20417;SDS011;10368;51.436;6.774;2023-04-06T08:11:48;13.83;;;9.03;;
20417;SDS011;10368;51.436;6.774;2023-04-06T08:14:15;10.10;;;8.23;;
20417;SDS011;10368;51.436;6.774;2023-04-06T08:16:42;11.00;;;8.40;;
20417;SDS011;10368;51.436;6.774;2023-04-06T08:19:09;13.00;;;9.73;;
20417;SDS011;10368;51.436;6.774;2023-04-06T08:21:37;11.23;;;8.93;;
20417;SDS011;10368;51.436;6.774;2023-04-06T08:24:05;34.13;;;25.00;;
20417;SDS011;10368;51.436;6.774;2023-04-06T08:26:33;12.77;;;9.20;;
20417;SDS011;10368;51.436;6.774;2023-04-06T08:29:00;12.43;;;9.27;;
20417;SDS011;10368;51.436;6.774;2023-04-06T08:31:27;11.80;;;9.17;;
20417;SDS011;10368;51.436;6.774;2023-04-06T08:33:54;9.90;;;8.03;;
20417;SDS011;10368;51.436;6.774;2023-04-06T08:36:22;13.30;;;8.83;;
20417;SDS011;10368;51.436;6.774;2023-04-06T08:38:49;11.53;;;9.37;;
20417;SDS011;10368;51.436;6.774;2023-04-06T08:41:16;11.27;;;9.00;;
20417;SDS011;10368;51.436;6.774;2023-04-06T08:43:48;13.90;;;8.80;;
20417;SDS011;10368;51.436;6.774;2023-04-06T08:46:17;11.40;;;9.03;;
20417;SDS011;10368;51.436;6.774;2023-04-06T08:48:44;12.50;;;9.07;;
20417;SDS011;10368;51.436;6.774;2023-04-06T08:51:14;14.97;;;9.73;;
20417;SDS011;10368;51.436;6.774;2023-04-06T08:53:41;12.03;;;9.70;;
20417;SDS011;10368;51.436;6.774;2023-04-06T08:56:09;10.73;;;8.73;;
20417;SDS011;10368;51.436;6.774;2023-04-06T08:58:37;11.93;;;9.93;;
20417;SDS011;10368;51.436;6.774;2023-04-06T09:01:07;11.33;;;9.57;;
20417;SDS011;10368;51.436;6.774;2023-04-06T09:03:38;12.67;;;9.97;;
20417;SDS011;10368;51.436;6.774;2023-04-06T09:06:08;17.07;;;10.63;;
20417;SDS011;10368;51.436;6.774;2023-04-06T09:08:37;12.33;;;9.13;;
20417;SDS011;10368;51.436;6.774;2023-04-06T09:11:06;14.50;;;10.27;;
20417;SDS011;10368;51.436;6.774;2023-04-06T09:13:49;12.53;;;9.80;;
20417;SDS011;10368;51.436;6.774;2023-04-06T09:16:17;11.53;;;9.93;;
20417;SDS011;10368;51.436;6.774;2023-04-06T09:18:45;14.00;;;10.40;;
20417;SDS011;10368;51.436;6.774;2023-04-06T09:21:12;13.97;;;9.60;;
20417;SDS011;10368;51.436;6.774;2023-04-06T09:23:39;12.37;;;9.33;;
20417;SDS011;10368;51.436;6.774;2023-04-06T09:26:11;11.80;;;9.77;;
20417;SDS011;10368;51.436;6.774;2023-04-06T09:28:50;15.50;;;10.90;;
20417;SDS011;10368;51.436;6.774;2023-04-06T09:31:21;13.13;;;9.90;;
20417;SDS011;10368;51.436;6.774;2023-04-06T09:33:49;14.47;;;10.13;;
20417;SDS011;10368;51.436;6.774;2023-04-06T09:36:16;16.03;;;10.70;;
20417;SDS011;10368;51.436;6.774;2023-04-06T09:39:02;14.57;;;10.30;;
20417;SDS011;10368;51.436;6.774;2023-04-06T09:46:42;17.83;;;12.93;;
20417;SDS011;10368;51.436;6.774;2023-04-06T09:49:28;18.07;;;11.50;;
20417;SDS011;10368;51.436;6.774;2023-04-06T09:52:02;15.07;;;11.70;;
20417;SDS011;10368;51.436;6.774;2023-04-06T09:54:30;13.57;;;10.63;;
20417;SDS011;10368;51.436;6.774;2023-04-06T09:57:07;15.23;;;11.47;;
20417;SDS011;10368;51.436;6.774;2023-04-06T10:07:48;14.27;;;11.47;;
20417;SDS011;10368;51.436;6.774;2023-04-06T10:10:26;12.70;;;10.70;;
20417;SDS011;10368;51.436;6.774;2023-04-06T10:12:55;14.63;;;10.97;;
20417;SDS011;10368;51.436;6.774;2023-04-06T10:15:22;18.63;;;12.53;;
20417;SDS011;10368;51.436;6.774;2023-04-06T10:17:50;14.63;;;11.57;;
20417;SDS011;10368;51.436;6.774;2023-04-06T10:20:28;16.57;;;11.13;;
20417;SDS011;10368;51.436;6.774;2023-04-06T10:23:02;15.40;;;11.53;;
20417;SDS011;10368;51.436;6.774;2023-04-06T10:25:40;18.33;;;11.90;;
20417;SDS011;10368;51.436;6.774;2023-04-06T10:28:18;18.13;;;10.97;;
20417;SDS011;10368;51.436;6.774;2023-04-06T10:30:46;16.57;;;11.97;;
20417;SDS011;10368;51.436;6.774;2023-04-06T10:33:18;14.80;;;11.52;;
20417;SDS011;10368;51.436;6.774;2023-04-06T10:35:46;15.68;;;12.40;;
20417;SDS011;10368;51.436;6.774;2023-04-06T10:38:13;16.17;;;13.02;;
20417;SDS011;10368;51.436;6.774;2023-04-06T10:40:41;17.38;;;12.45;;
20417;SDS011;10368;51.436;6.774;2023-04-06T10:43:22;17.27;;;11.52;;
20417;SDS011;10368;51.436;6.774;2023-04-06T10:45:56;20.02;;;13.90;;
20417;SDS011;10368;51.436;6.774;2023-04-06T10:48:24;20.35;;;13.32;;
20417;SDS011;10368;51.436;6.774;2023-04-06T10:50:52;26.85;;;12.80;;
20417;SDS011;10368;51.436;6.774;2023-04-06T10:53:21;23.25;;;14.55;;
20417;SDS011;10368;51.436;6.774;2023-04-06T10:55:49;17.67;;;12.10;;
20417;SDS011;10368;51.436;6.774;2023-04-06T10:58:17;16.17;;;12.23;;
20417;SDS011;10368;51.436;6.774;2023-04-06T11:00:45;16.77;;;12.05;;
20417;SDS011;10368;51.436;6.774;2023-04-06T11:03:17;16.20;;;11.27;;
20417;SDS011;10368;51.436;6.774;2023-04-06T11:05:45;16.55;;;12.30;;
20417;SDS011;10368;51.436;6.774;2023-04-06T11:10:49;17.05;;;12.50;;
20417;SDS011;10368;51.436;6.774;2023-04-06T11:13:16;18.60;;;12.77;;
20417;SDS011;10368;51.436;6.774;2023-04-06T11:15:43;15.15;;;11.52;;
20417;SDS011;10368;51.436;6.774;2023-04-06T11:18:10;18.10;;;13.48;;
20417;SDS011;10368;51.436;6.774;2023-04-06T11:20:37;16.85;;;12.68;;
20417;SDS011;10368;51.436;6.774;2023-04-06T11:23:04;25.70;;;13.93;;
20417;SDS011;10368;51.436;6.774;2023-04-06T11:25:32;25.88;;;14.68;;
20417;SDS011;10368;51.436;6.774;2023-04-06T11:27:59;17.95;;;13.18;;
20417;SDS011;10368;51.436;6.774;2023-04-06T11:30:26;18.65;;;13.23;;
20417;SDS011;10368;51.436;6.774;2023-04-06T11:33:00;19.30;;;13.93;;
20417;SDS011;10368;51.436;6.774;2023-04-06T11:35:28;20.08;;;14.20;;
20417;SDS011;10368;51.436;6.774;2023-04-06T11:37:57;20.15;;;15.57;;
20417;SDS011;10368;51.436;6.774;2023-04-06T11:40:25;21.33;;;13.73;;
20417;SDS011;10368;51.436;6.774;2023-04-06T11:42:55;21.60;;;13.18;;
20417;SDS011;10368;51.436;6.774;2023-04-06T11:45:22;21.05;;;14.23;;
20417;SDS011;10368;51.436;6.774;2023-04-06T11:47:56;19.15;;;13.38;;
20417;SDS011;10368;51.436;6.774;2023-04-06T11:50:25;17.85;;;13.00;;
20417;SDS011;10368;51.436;6.774;2023-04-06T11:53:00;18.02;;;13.88;;
20417;SDS011;10368;51.436;6.774;2023-04-06T11:55:29;20.30;;;13.53;;
20417;SDS011;10368;51.436;6.774;2023-04-06T11:58:04;17.90;;;15.67;;
20417;SDS011;10368;51.436;6.774;2023-04-06T12:00:31;17.07;;;12.70;;
20417;SDS011;10368;51.436;6.774;2023-04-06T12:03:00;19.37;;;14.20;;
20417;SDS011;10368;51.436;6.774;2023-04-06T12:05:28;23.63;;;14.17;;
20417;SDS011;10368;51.436;6.774;2023-04-06T12:07:54;17.17;;;12.00;;
20417;SDS011;10368;51.436;6.774;2023-04-06T12:10:24;16.40;;;11.70;;
20417;SDS011;10368;51.436;6.774;2023-04-06T12:12:51;20.83;;;13.67;;
20417;SDS011;10368;51.436;6.774;2023-04-06T12:15:18;18.15;;;12.27;;
20417;SDS011;10368;51.436;6.774;2023-04-06T12:17:44;17.45;;;12.57;;
20417;SDS011;10368;51.436;6.774;2023-04-06T12:20:11;15.57;;;11.20;;
20417;SDS011;10368;51.436;6.774;2023-04-06T12:22:51;16.30;;;11.85;;
20417;SDS011;10368;51.436;6.774;2023-04-06T12:25:19;16.92;;;12.07;;
20417;SDS011;10368;51.436;6.774;2023-04-06T12:27:46;16.08;;;11.93;;
20417;SDS011;10368;51.436;6.774;2023-04-06T12:30:13;23.92;;;12.48;;
20417;SDS011;10368;51.436;6.774;2023-04-06T12:32:40;14.88;;;12.52;;
20417;SDS011;10368;51.436;6.774;2023-04-06T12:35:08;19.65;;;14.20;;
20417;SDS011;10368;51.436;6.774;2023-04-06T12:37:37;19.33;;;14.13;;
20417;SDS011;10368;51.436;6.774;2023-04-06T12:40:05;21.52;;;14.68;;
20417;SDS011;10368;51.436;6.774;2023-04-06T12:42:32;19.27;;;14.80;;
20417;SDS011;10368;51.436;6.774;2023-04-06T12:44:59;15.47;;;12.73;;
20417;SDS011;10368;51.436;6.774;2023-04-06T12:47:27;18.40;;;12.87;;
20417;SDS011;10368;51.436;6.774;2023-04-06T12:49:55;15.50;;;11.90;;
20417;SDS011;10368;51.436;6.774;2023-04-06T12:52:22;17.02;;;10.50;;
20417;SDS011;10368;51.436;6.774;2023-04-06T12:54:50;15.37;;;11.20;;
20417;SDS011;10368;51.436;6.774;2023-04-06T12:57:17;17.23;;;11.00;;
20417;SDS011;10368;51.436;6.774;2023-04-06T12:59:44;17.87;;;9.50;;
20417;SDS011;10368;51.436;6.774;2023-04-06T13:02:12;11.50;;;8.93;;
20417;SDS011;10368;51.436;6.774;2023-04-06T13:04:40;11.33;;;8.60;;
20417;SDS011;10368;51.436;6.774;2023-04-06T13:07:07;14.60;;;10.37;;
20417;SDS011;10368;51.436;6.774;2023-04-06T13:09:38;11.70;;;9.20;;
20417;SDS011;10368;51.436;6.774;2023-04-06T13:12:05;17.07;;;10.97;;
20417;SDS011;10368;51.436;6.774;2023-04-06T13:14:32;13.60;;;10.23;;
20417;SDS011;10368;51.436;6.774;2023-04-06T13:17:01;15.03;;;8.33;;
20417;SDS011;10368;51.436;6.774;2023-04-06T13:19:28;10.93;;;7.67;;
20417;SDS011;10368;51.436;6.774;2023-04-06T13:21:57;8.63;;;7.50;;
20417;SDS011;10368;51.436;6.774;2023-04-06T13:24:24;9.20;;;7.77;;
20417;SDS011;10368;51.436;6.774;2023-04-06T13:26:51;11.67;;;6.40;;
20417;SDS011;10368;51.436;6.774;2023-04-06T13:29:19;8.70;;;7.23;;
20417;SDS011;10368;51.436;6.774;2023-04-06T13:31:47;9.63;;;6.27;;
20417;SDS011;10368;51.436;6.774;2023-04-06T13:34:14;10.23;;;6.80;;
20417;SDS011;10368;51.436;6.774;2023-04-06T13:36:42;9.87;;;6.87;;
20417;SDS011;10368;51.436;6.774;2023-04-06T13:39:09;10.53;;;7.47;;
20417;SDS011;10368;51.436;6.774;2023-04-06T13:41:36;8.03;;;7.23;;
20417;SDS011;10368;51.436;6.774;2023-04-06T13:44:04;9.10;;;6.57;;
20417;SDS011;10368;51.436;6.774;2023-04-06T13:46:31;14.77;;;7.50;;
20417;SDS011;10368;51.436;6.774;2023-04-06T13:48:58;10.33;;;7.47;;
20417;SDS011;10368;51.436;6.774;2023-04-06T13:51:26;9.77;;;7.70;;
20417;SDS011;10368;51.436;6.774;2023-04-06T13:53:53;10.40;;;8.30;;
20417;SDS011;10368;51.436;6.774;2023-04-06T13:56:21;13.93;;;8.53;;
20417;SDS011;10368;51.436;6.774;2023-04-06T13:58:48;9.03;;;8.13;;
20417;SDS011;10368;51.436;6.774;2023-04-06T14:01:15;8.90;;;7.37;;
20417;SDS011;10368;51.436;6.774;2023-04-06T14:03:44;11.07;;;9.33;;
20417;SDS011;10368;51.436;6.774;2023-04-06T14:06:14;10.00;;;8.93;;
20417;SDS011;10368;51.436;6.774;2023-04-06T14:08:56;12.43;;;9.80;;
20417;SDS011;10368;51.436;6.774;2023-04-06T14:11:23;9.90;;;8.43;;
20417;SDS011;10368;51.436;6.774;2023-04-06T14:13:50;12.77;;;9.17;;
20417;SDS011;10368;51.436;6.774;2023-04-06T14:16:19;16.40;;;10.00;;
20417;SDS011;10368;51.436;6.774;2023-04-06T14:18:49;10.80;;;8.70;;
20417;SDS011;10368;51.436;6.774;2023-04-06T14:21:16;11.97;;;8.50;;
20417;SDS011;10368;51.436;6.774;2023-04-06T14:23:44;12.00;;;8.57;;
20417;SDS011;10368;51.436;6.774;2023-04-06T14:26:12;16.87;;;8.43;;
20417;SDS011;10368;51.436;6.774;2023-04-06T14:28:40;13.07;;;7.87;;
20417;SDS011;10368;51.436;6.774;2023-04-06T14:31:10;14.97;;;7.43;;
20417;SDS011;10368;51.436;6.774;2023-04-06T14:33:38;9.20;;;8.03;;
20417;SDS011;10368;51.436;6.774;2023-04-06T14:36:06;12.93;;;7.67;;
20417;SDS011;10368;51.436;6.774;2023-04-06T14:38:34;9.33;;;7.60;;
20417;SDS011;10368;51.436;6.774;2023-04-06T14:41:01;11.23;;;8.40;;
20417;SDS011;10368;51.436;6.774;2023-04-06T14:43:29;12.97;;;9.83;;
20417;SDS011;10368;51.436;6.774;2023-04-06T14:45:59;12.27;;;8.87;;
20417;SDS011;10368;51.436;6.774;2023-04-06T14:48:27;12.70;;;11.00;;
20417;SDS011;10368;51.436;6.774;2023-04-06T14:50:57;10.53;;;8.80;;
20417;SDS011;10368;51.436;6.774;2023-04-06T14:53:24;10.73;;;9.10;;